createdAt,value
2023-02-11T00:00:06.131Z,-4.3
2023-02-11T00:01:06.467Z,-4.3
2023-02-11T00:02:06.292Z,-4.3
2023-02-11T00:03:06.864Z,-5
2023-02-11T00:04:06.159Z,-5
2023-02-11T00:05:05.796Z,-4.4
2023-02-11T00:06:06.436Z,-4.4
2023-02-11T00:07:05.985Z,-4.4
2023-02-11T00:08:05.622Z,-4.4
2023-02-11T00:09:06.402Z,-4.3
2023-02-11T00:10:05.907Z,-4.3
2023-02-11T00:11:06.657Z,-4.3
2023-02-11T00:12:06.483Z,-4.3
2023-02-11T00:13:06.021Z,-4.3
2023-02-11T00:14:06.561Z,-4.3
2023-02-11T00:15:06.091Z,-5
2023-02-11T00:16:05.867Z,-4.4
2023-02-11T00:17:06.867Z,-4.4
2023-02-11T00:18:06.278Z,-4.4
2023-02-11T00:19:06.033Z,-4.4
2023-02-11T00:20:09.927Z,-4.4
2023-02-11T00:21:06.237Z,-4.4
2023-02-11T00:22:05.843Z,-4.4
2023-02-11T00:23:06.618Z,-4.4
2023-02-11T00:24:05.858Z,-4.4
2023-02-11T00:25:05.820Z,-4.4
2023-02-11T00:26:06.466Z,-4.4
2023-02-11T00:27:06.195Z,-5
2023-02-11T00:28:05.971Z,-4.4
2023-02-11T00:29:06.552Z,-5
2023-02-11T00:30:06.105Z,-4.4
2023-02-11T00:31:06.475Z,-4.4
2023-02-11T00:32:05.912Z,-4.4
2023-02-11T00:33:06.406Z,-4.4
2023-02-11T00:34:06.012Z,-4.4
2023-02-11T00:35:06.734Z,-4.4
2023-02-11T00:36:06.149Z,-5
2023-02-11T00:37:05.774Z,-4.4
2023-02-11T00:38:06.492Z,-4.4
2023-02-11T00:39:05.966Z,-4.4
2023-02-11T00:40:10.423Z,-4.4
2023-02-11T00:41:06.204Z,-4.5
2023-02-11T00:42:05.895Z,-4.5
2023-02-11T00:43:06.467Z,-4.5
2023-02-11T00:44:05.945Z,-4.5
2023-02-11T00:45:05.726Z,-4.5
2023-02-11T00:46:06.223Z,-4.5
2023-02-11T00:47:06.389Z,-4.5
2023-02-11T00:48:06.113Z,-4.5
2023-02-11T00:49:05.686Z,-4.5
2023-02-11T00:50:06.284Z,-4.5
2023-02-11T00:51:06.033Z,-4.6
2023-02-11T00:52:06.653Z,-4.5
2023-02-11T00:53:06.144Z,-4.6
2023-02-11T00:54:05.819Z,-5
2023-02-11T00:55:06.512Z,-4.6
2023-02-11T00:56:06.246Z,-4.6
2023-02-11T00:57:05.792Z,-4.6
2023-02-11T00:58:06.461Z,-4.7
2023-02-11T00:59:06.096Z,-4.7
2023-02-11T01:00:05.846Z,-4.7
2023-02-11T01:01:06.529Z,-5
2023-02-11T01:02:06.128Z,-4.7
2023-02-11T01:03:06.735Z,-4.7
2023-02-11T01:04:05.925Z,-4.8
2023-02-11T01:05:06.775Z,-4.8
2023-02-11T01:06:06.427Z,-4.8
2023-02-11T01:07:06.025Z,-4.8
2023-02-11T01:08:05.816Z,-4.8
2023-02-11T01:09:06.465Z,-4.8
2023-02-11T01:10:06.111Z,-4.8
2023-02-11T01:11:06.497Z,-4.8
2023-02-11T01:12:06.402Z,-4.8
2023-02-11T01:13:06.141Z,-4.8
2023-02-11T01:14:05.947Z,-4.8
2023-02-11T01:15:06.605Z,-4.8
2023-02-11T01:16:06.390Z,-4.8
2023-02-11T01:17:05.615Z,-4.8
2023-02-11T01:18:05.680Z,-4.9
2023-02-11T01:19:06.316Z,-4.9
2023-02-11T01:20:05.788Z,-4.9
2023-02-11T01:21:06.401Z,-4.9
2023-02-11T01:22:05.539Z,-6
2023-02-11T01:23:06.423Z,-4.9
2023-02-11T01:24:05.880Z,-4.9
2023-02-11T01:25:06.493Z,-4.9
2023-02-11T01:26:05.976Z,-5
2023-02-11T01:27:05.827Z,-5
2023-02-11T01:28:06.631Z,-5
2023-02-11T01:29:05.869Z,-5
2023-02-11T01:30:06.409Z,-5
2023-02-11T01:31:05.999Z,-5
2023-02-11T01:32:06.608Z,-5
2023-02-11T01:33:06.210Z,-5
2023-02-11T01:34:05.817Z,-5
2023-02-11T01:35:06.647Z,-5
2023-02-11T01:36:06.150Z,-5
2023-02-11T01:37:05.584Z,-5
2023-02-11T01:38:06.435Z,-5
2023-02-11T01:39:06.118Z,-6
2023-02-11T01:40:05.781Z,-5
2023-02-11T01:41:06.584Z,-5
2023-02-11T01:42:05.799Z,-5
2023-02-11T01:43:05.819Z,-5
2023-02-11T01:44:06.161Z,-5
2023-02-11T01:45:05.838Z,-5
2023-02-11T01:46:05.912Z,-5
2023-02-11T01:47:06.625Z,-5
2023-02-11T01:48:06.284Z,-5
2023-02-11T01:49:06.113Z,-6
2023-02-11T01:50:06.539Z,-5
2023-02-11T01:51:06.095Z,-5
2023-02-11T01:52:05.878Z,-5
2023-02-11T01:53:06.369Z,-5
2023-02-11T01:54:05.936Z,-5
2023-02-11T01:55:06.363Z,-4.9
2023-02-11T01:56:05.865Z,-4.9
2023-02-11T01:57:06.604Z,-6
2023-02-11T01:58:06.224Z,-4.9
2023-02-11T01:59:05.900Z,-4.9
2023-02-11T02:00:06.612Z,-4.9
2023-02-11T02:01:06.216Z,-6
2023-02-11T02:02:06.035Z,-6
2023-02-11T02:03:06.658Z,-4.9
2023-02-11T02:04:06.324Z,-4.9
2023-02-11T02:05:05.880Z,-4.9
2023-02-11T02:06:06.555Z,-4.9
2023-02-11T02:07:06.152Z,-4.9
2023-02-11T02:08:05.976Z,-5
2023-02-11T02:09:06.646Z,-4.9
2023-02-11T02:10:06.315Z,-4.9
2023-02-11T02:11:06.015Z,-5
2023-02-11T02:12:06.673Z,-4.9
2023-02-11T02:13:06.157Z,-4.9
2023-02-11T02:14:05.655Z,-4.9
2023-02-11T02:15:06.592Z,-4.9
2023-02-11T02:16:09.573Z,-4.9
2023-02-11T02:17:06.203Z,-4.8
2023-02-11T02:18:05.902Z,-4.8
2023-02-11T02:19:06.476Z,-4.8
2023-02-11T02:20:06.309Z,-4.8
2023-02-11T02:21:05.856Z,-4.8
2023-02-11T02:22:06.295Z,-4.8
2023-02-11T02:23:06.267Z,-4.8
2023-02-11T02:24:05.845Z,-4.7
2023-02-11T02:25:06.440Z,-4.7
2023-02-11T02:26:06.007Z,-4.7
2023-02-11T02:27:05.542Z,-4.7
2023-02-11T02:28:06.476Z,-4.7
2023-02-11T02:29:05.896Z,-4.6
2023-02-11T02:30:06.668Z,-4.6
2023-02-11T02:31:06.434Z,-4.6
2023-02-11T02:32:05.849Z,-4.6
2023-02-11T02:33:24.503Z,-4.6
2023-02-11T02:34:06.475Z,-4.6
2023-02-11T02:35:06.233Z,-4.6
2023-02-11T02:36:06.028Z,-5
2023-02-11T02:37:06.612Z,-4.5
2023-02-11T02:38:06.332Z,-4.5
2023-02-11T02:39:06.103Z,-4.5
2023-02-11T02:40:06.568Z,-4.5
2023-02-11T02:41:06.137Z,-4.5
2023-02-11T02:42:05.723Z,-4.5
2023-02-11T02:43:06.431Z,-4.4
2023-02-11T02:44:06.226Z,-4.4
2023-02-11T02:45:05.705Z,-4.4
2023-02-11T02:46:06.129Z,-4.4
2023-02-11T02:47:05.868Z,-4.4
2023-02-11T02:48:06.598Z,-4.4
2023-02-11T02:49:05.970Z,-4.4
2023-02-11T02:50:05.850Z,-4.4
2023-02-11T02:51:06.321Z,-4.3
2023-02-11T02:52:06.097Z,-4
2023-02-11T02:53:06.584Z,-4.3
2023-02-11T02:54:06.163Z,-4.3
2023-02-11T02:55:05.793Z,-4.3
2023-02-11T02:56:06.360Z,-4.3
2023-02-11T02:57:06.308Z,-4.2
2023-02-11T02:58:05.655Z,-4.2
2023-02-11T02:59:06.620Z,-4.2
2023-02-11T03:00:06.225Z,-4.2
2023-02-11T03:01:06.010Z,-4.2
2023-02-11T03:02:06.357Z,-4.3
2023-02-11T03:03:05.968Z,-4.2
2023-02-11T03:04:06.910Z,-4.3
2023-02-11T03:05:06.208Z,-4.3
2023-02-11T03:06:05.887Z,-4.3
2023-02-11T03:07:05.756Z,-4.3
2023-02-11T03:08:06.336Z,-4.3
2023-02-11T03:09:05.973Z,-4.2
2023-02-11T03:10:06.667Z,-4.3
2023-02-11T03:11:06.263Z,-4.3
2023-02-11T03:12:05.904Z,-4.3
2023-02-11T03:13:06.693Z,-5
2023-02-11T03:14:06.168Z,-4.2
2023-02-11T03:15:05.780Z,-4.2
2023-02-11T03:16:06.233Z,-4.2
2023-02-11T03:17:05.808Z,-4.2
2023-02-11T03:18:06.526Z,-4.2
2023-02-11T03:19:06.275Z,-4.2
2023-02-11T03:20:05.934Z,-4.2
2023-02-11T03:21:06.582Z,-4
2023-02-11T03:22:06.221Z,-4.2
2023-02-11T03:23:05.834Z,-4
2023-02-11T03:24:06.508Z,-4.2
2023-02-11T03:25:06.102Z,-4.2
2023-02-11T03:26:05.854Z,-4.2
2023-02-11T03:27:06.479Z,-4
2023-02-11T03:28:06.240Z,-4.2
2023-02-11T03:29:05.800Z,-4.2
2023-02-11T03:30:06.492Z,-4.2
2023-02-11T03:31:06.012Z,-4.1
2023-02-11T03:32:06.921Z,-4.2
2023-02-11T03:33:06.243Z,-4.1
2023-02-11T03:34:05.848Z,-4.2
2023-02-11T03:35:06.436Z,-4.2
2023-02-11T03:36:05.998Z,-4.2
2023-02-11T03:37:06.555Z,-4.1
2023-02-11T03:38:06.216Z,-4.2
2023-02-11T03:39:05.738Z,-4.2
2023-02-11T03:40:06.369Z,-4.2
2023-02-11T03:41:05.940Z,-4.2
2023-02-11T03:42:06.758Z,-4.2
2023-02-11T03:43:06.256Z,-4.2
2023-02-11T03:44:05.844Z,-4.2
2023-02-11T03:45:06.447Z,-4.2
2023-02-11T03:46:06.851Z,-4.3
2023-02-11T03:47:06.347Z,-4.3
2023-02-11T03:48:06.058Z,-4.3
2023-02-11T03:49:06.701Z,-4.3
2023-02-11T03:50:06.276Z,-4.3
2023-02-11T03:51:05.871Z,-4.3
2023-02-11T03:52:06.485Z,-4.3
2023-02-11T03:53:06.141Z,-4.3
2023-02-11T03:54:06.744Z,-4.2
2023-02-11T03:55:06.303Z,-4.2
2023-02-11T03:56:06.017Z,-4.2
2023-02-11T03:57:05.586Z,-4.2
2023-02-11T03:58:06.384Z,-5
2023-02-11T03:59:05.865Z,-4.2
2023-02-11T04:00:06.377Z,-4.2
2023-02-11T04:01:06.873Z,-4.2
2023-02-11T04:02:06.354Z,-4.2
2023-02-11T04:03:06.193Z,-4.2
2023-02-11T04:04:06.689Z,-4.2
2023-02-11T04:05:06.175Z,-4.2
2023-02-11T04:06:05.978Z,-5
2023-02-11T04:07:06.537Z,-4.2
2023-02-11T04:08:06.208Z,-4.2
2023-02-11T04:09:05.607Z,-4.2
2023-02-11T04:10:06.572Z,-5
2023-02-11T04:11:05.987Z,-4.2
2023-02-11T04:12:06.552Z,-4.2
2023-02-11T04:13:06.275Z,-4.2
2023-02-11T04:14:06.074Z,-4.2
2023-02-11T04:15:05.752Z,-4.2
2023-02-11T04:16:06.423Z,-4.2
2023-02-11T04:17:05.782Z,-4.2
2023-02-11T04:18:06.401Z,-4.2
2023-02-11T04:19:05.866Z,-4.2
2023-02-11T04:20:06.745Z,-5
2023-02-11T04:21:06.195Z,-4.2
2023-02-11T04:22:05.727Z,-5
2023-02-11T04:23:06.442Z,-5
2023-02-11T04:24:06.164Z,-4.2
2023-02-11T04:25:05.863Z,-4.2
2023-02-11T04:26:06.570Z,-4.1
2023-02-11T04:27:05.900Z,-4.1
2023-02-11T04:28:05.984Z,-5
2023-02-11T04:29:06.226Z,-5
2023-02-11T04:30:05.986Z,-4.1
2023-02-11T04:31:06.685Z,-4.1
2023-02-11T04:32:06.284Z,-4.1
2023-02-11T04:33:05.776Z,-4
2023-02-11T04:34:06.347Z,-4
2023-02-11T04:35:05.710Z,-4
2023-02-11T04:36:05.831Z,-4
2023-02-11T04:37:06.399Z,-4
2023-02-11T04:38:06.082Z,-4
2023-02-11T04:39:05.576Z,-4
2023-02-11T04:40:06.647Z,-4
2023-02-11T04:41:06.022Z,-4
2023-02-11T04:42:06.560Z,-4
2023-02-11T04:43:06.240Z,-4
2023-02-11T04:44:05.878Z,-4
2023-02-11T04:45:06.581Z,-4
2023-02-11T04:46:06.471Z,-3.9
2023-02-11T04:47:05.923Z,-3.9
2023-02-11T04:48:06.684Z,-3.9
2023-02-11T04:49:06.326Z,-3.9
2023-02-11T04:50:05.876Z,-3.8
2023-02-11T04:51:06.352Z,-3.8
2023-02-11T04:52:05.971Z,-3.8
2023-02-11T04:53:05.660Z,-3.8
2023-02-11T04:54:06.558Z,-3.8
2023-02-11T04:55:06.121Z,-3.8
2023-02-11T04:56:05.757Z,-3.8
2023-02-11T04:57:06.592Z,-3.7
2023-02-11T04:58:06.269Z,-3.7
2023-02-11T04:59:05.859Z,-3.7
2023-02-11T05:00:06.401Z,-3.6
2023-02-11T05:01:05.913Z,-3.6
2023-02-11T05:02:05.688Z,-3.6
2023-02-11T05:03:06.449Z,-3.6
2023-02-11T05:04:06.277Z,-3.6
2023-02-11T05:05:06.616Z,-3.6
2023-02-11T05:06:06.234Z,-3.6
2023-02-11T05:07:05.812Z,-4
2023-02-11T05:08:06.593Z,-4
2023-02-11T05:09:06.199Z,-3.5
2023-02-11T05:10:06.072Z,-3.5
2023-02-11T05:11:06.552Z,-3.5
2023-02-11T05:12:06.210Z,-4
2023-02-11T05:13:05.777Z,-3.5
2023-02-11T05:14:06.345Z,-3.5
2023-02-11T05:15:05.963Z,-3.5
2023-02-11T05:16:06.142Z,-3.5
2023-02-11T05:17:06.062Z,-3.5
2023-02-11T05:18:06.412Z,-3.5
2023-02-11T05:19:06.160Z,-3.5
2023-02-11T05:20:05.778Z,-3.5
2023-02-11T05:21:06.327Z,-3.4
2023-02-11T05:22:07.792Z,-3.4
2023-02-11T05:23:06.321Z,-3.4
2023-02-11T05:24:06.073Z,-3.4
2023-02-11T05:25:05.733Z,-3.4
2023-02-11T05:26:06.472Z,-3.4
2023-02-11T05:27:06.085Z,-3.4
2023-02-11T05:28:05.861Z,-3.4
2023-02-11T05:29:06.329Z,-3.4
2023-02-11T05:30:06.115Z,-3.4
2023-02-11T05:31:06.369Z,-3.4
2023-02-11T05:32:05.716Z,-3.4
2023-02-11T05:33:06.272Z,-3.4
2023-02-11T05:34:05.960Z,-3.4
2023-02-11T05:35:06.534Z,-3.3
2023-02-11T05:36:06.369Z,-3.4
2023-02-11T05:37:05.923Z,-3.3
2023-02-11T05:38:06.595Z,-4
2023-02-11T05:39:06.030Z,-3.3
2023-02-11T05:40:05.755Z,-4
2023-02-11T05:41:06.405Z,-3.2
2023-02-11T05:42:05.976Z,-3.2
2023-02-11T05:43:05.744Z,-3.2
2023-02-11T05:44:06.434Z,-3.2
2023-02-11T05:45:06.143Z,-3.2
2023-02-11T05:46:06.207Z,-3.2
2023-02-11T05:47:06.893Z,-3.2
2023-02-11T05:48:06.434Z,-3.2
2023-02-11T05:49:05.997Z,-3.1
2023-02-11T05:50:06.677Z,-3.1
2023-02-11T05:51:06.354Z,-3.1
2023-02-11T05:52:05.887Z,-3.1
2023-02-11T05:53:06.889Z,-3
2023-02-11T05:54:06.200Z,-3.1
2023-02-11T05:55:05.871Z,-3.1
2023-02-11T05:56:06.433Z,-3.1
2023-02-11T05:57:05.895Z,-3.1
2023-02-11T05:58:05.771Z,-3
2023-02-11T05:59:06.396Z,-3
2023-02-11T06:00:06.107Z,-3
2023-02-11T06:01:05.582Z,-3
2023-02-11T06:02:06.201Z,-3
2023-02-11T06:03:05.782Z,-2.9
2023-02-11T06:04:06.604Z,-2.9
2023-02-11T06:05:06.249Z,-2.9
2023-02-11T06:06:05.922Z,-2.9
2023-02-11T06:07:06.438Z,-2.9
2023-02-11T06:08:06.112Z,-3
2023-02-11T06:09:05.707Z,-2.8
2023-02-11T06:10:06.391Z,-2.8
2023-02-11T06:11:06.137Z,-2.8
2023-02-11T06:12:06.588Z,-2.8
2023-02-11T06:13:06.288Z,-2.8
2023-02-11T06:14:06.037Z,-2.8
2023-02-11T06:15:06.647Z,-2.8
2023-02-11T06:16:05.839Z,-2.8
2023-02-11T06:17:06.369Z,-2.8
2023-02-11T06:18:05.934Z,-2.8
2023-02-11T06:19:05.684Z,-2.8
2023-02-11T06:20:06.300Z,-3
2023-02-11T06:21:05.841Z,-3
2023-02-11T06:22:06.442Z,-2.8
2023-02-11T06:23:06.274Z,-2.8
2023-02-11T06:24:05.726Z,-2.8
2023-02-11T06:25:06.762Z,-2.8
2023-02-11T06:26:06.014Z,-2.8
2023-02-11T06:27:05.947Z,-2.8
2023-02-11T06:28:06.613Z,-2.8
2023-02-11T06:29:05.849Z,-2.8
2023-02-11T06:30:06.774Z,-2.8
2023-02-11T06:31:06.286Z,-3
2023-02-11T06:32:08.693Z,-3
2023-02-11T06:33:05.912Z,-2.7
2023-02-11T06:34:06.489Z,-3
2023-02-11T06:35:05.992Z,-2.7
2023-02-11T06:36:05.683Z,-2.7
2023-02-11T06:37:06.323Z,-2.7
2023-02-11T06:38:05.935Z,-2.7
2023-02-11T06:39:06.547Z,-2.7
2023-02-11T06:40:06.150Z,-2.6
2023-02-11T06:41:05.727Z,-2.6
2023-02-11T06:42:08.491Z,-2.6
2023-02-11T06:43:06.189Z,-3
2023-02-11T06:44:05.841Z,-3
2023-02-11T06:45:06.655Z,-2.6
2023-02-11T06:46:06.581Z,-3
2023-02-11T06:47:06.103Z,-3
2023-02-11T06:48:05.760Z,-2.5
2023-02-11T06:49:06.493Z,-2.5
2023-02-11T06:50:06.093Z,-2.5
2023-02-11T06:51:06.571Z,-2.5
2023-02-11T06:52:06.209Z,-3
2023-02-11T06:53:05.916Z,-2.5
2023-02-11T06:54:06.444Z,-2.5
2023-02-11T06:55:06.345Z,-2.4
2023-02-11T06:56:05.845Z,-2.5
2023-02-11T06:57:06.484Z,-2.4
2023-02-11T06:58:06.062Z,-2.4
2023-02-11T06:59:06.573Z,-2.4
2023-02-11T07:00:07.756Z,-2.4
2023-02-11T07:01:06.233Z,-2.4
2023-02-11T07:02:06.199Z,-2.4
2023-02-11T07:03:05.891Z,-2.4
2023-02-11T07:04:06.428Z,-2.4
2023-02-11T07:05:05.905Z,-2.4
2023-02-11T07:06:05.801Z,-2.4
2023-02-11T07:07:06.258Z,-2.3
2023-02-11T07:08:05.782Z,-2.4
2023-02-11T07:09:06.706Z,-2.3
2023-02-11T07:10:06.046Z,-2.3
2023-02-11T07:11:05.862Z,-2.3
2023-02-11T07:12:06.673Z,-2.3
2023-02-11T07:13:06.077Z,-2.2
2023-02-11T07:14:05.798Z,-2.2
2023-02-11T07:15:06.480Z,-3
2023-02-11T07:16:05.821Z,-2.2
2023-02-11T07:17:06.273Z,-2.2
2023-02-11T07:18:06.064Z,-2.2
2023-02-11T07:19:06.500Z,-2.1
2023-02-11T07:20:06.408Z,-2.1
2023-02-11T07:21:05.879Z,-2
2023-02-11T07:22:06.493Z,-2
2023-02-11T07:23:06.170Z,-2.1
2023-02-11T07:24:06.272Z,-2.1
2023-02-11T07:25:06.395Z,-2.1
2023-02-11T07:26:06.058Z,-2.1
2023-02-11T07:27:05.451Z,-2
2023-02-11T07:28:06.464Z,-2
2023-02-11T07:29:06.071Z,-2
2023-02-11T07:30:09.590Z,-3
2023-02-11T07:31:06.552Z,-2
2023-02-11T07:32:05.944Z,-2
2023-02-11T07:33:06.350Z,-2
2023-02-11T07:34:06.128Z,-2
2023-02-11T07:35:06.920Z,-1.9
2023-02-11T07:36:06.182Z,-1.9
2023-02-11T07:37:05.766Z,-1.9
2023-02-11T07:38:06.464Z,-1.9
2023-02-11T07:39:06.192Z,-1.9
2023-02-11T07:40:05.752Z,-1.9
2023-02-11T07:41:06.531Z,-1.8
2023-02-11T07:42:06.160Z,-2
2023-02-11T07:43:06.014Z,-1.8
2023-02-11T07:44:06.552Z,-1.8
2023-02-11T07:45:06.263Z,-1.8
2023-02-11T07:46:05.916Z,-1.8
2023-02-11T07:47:06.856Z,-1.8
2023-02-11T07:48:06.200Z,-1.8
2023-02-11T07:49:05.590Z,-1.8
2023-02-11T07:50:06.689Z,-1.8
2023-02-11T07:51:06.186Z,-1.7
2023-02-11T07:52:05.780Z,-1.7
2023-02-11T07:53:06.533Z,-1.7
2023-02-11T07:54:06.256Z,-1.7
2023-02-11T07:55:08.858Z,-1.7
2023-02-11T07:56:06.280Z,-1.6
2023-02-11T07:57:05.998Z,-1.7
2023-02-11T07:58:06.598Z,-2
2023-02-11T07:59:06.136Z,-2
2023-02-11T08:00:05.821Z,-1.6
2023-02-11T08:01:06.550Z,-1.5
2023-02-11T08:02:06.080Z,-1.5
2023-02-11T08:03:06.761Z,-1.5
2023-02-11T08:04:06.390Z,-1.5
2023-02-11T08:05:05.999Z,-2
2023-02-11T08:06:06.550Z,-1.4
2023-02-11T08:07:06.083Z,-1.4
2023-02-11T08:08:05.831Z,-1.4
2023-02-11T08:09:06.472Z,-1.4
2023-02-11T08:10:06.080Z,-1.3
2023-02-11T08:11:05.770Z,-1.3
2023-02-11T08:12:06.445Z,-1.3
2023-02-11T08:13:06.092Z,-1.2
2023-02-11T08:14:05.634Z,-1.2
2023-02-11T08:15:06.447Z,-1.2
2023-02-11T08:16:06.144Z,-1.2
2023-02-11T08:17:06.637Z,-2
2023-02-11T08:18:06.275Z,-1.2
2023-02-11T08:19:05.830Z,-1.1
2023-02-11T08:20:06.673Z,-1.2
2023-02-11T08:21:06.177Z,-1.1
2023-02-11T08:22:05.586Z,-1.1
2023-02-11T08:23:06.117Z,-1.1
2023-02-11T08:24:05.772Z,-1.1
2023-02-11T08:25:06.562Z,-1.1
2023-02-11T08:26:06.095Z,-1
2023-02-11T08:27:05.760Z,-1
2023-02-11T08:28:06.445Z,-1
2023-02-11T08:29:05.882Z,-1
2023-02-11T08:30:06.784Z,-1
2023-02-11T08:31:06.285Z,-0.9
2023-02-11T08:32:06.882Z,-0.9
2023-02-11T08:33:06.189Z,-0.8
2023-02-11T08:34:05.883Z,-0.8
2023-02-11T08:35:06.624Z,-0.8
2023-02-11T08:36:06.610Z,-0.8
2023-02-11T08:37:06.350Z,-0.7
2023-02-11T08:38:05.957Z,-0.7
2023-02-11T08:39:22.881Z,-0.6
2023-02-11T08:40:06.246Z,-0.6
2023-02-11T08:41:05.826Z,-0.4
2023-02-11T08:42:06.467Z,-0.4
2023-02-11T08:43:09.030Z,-0.4
2023-02-11T08:44:05.656Z,-1
2023-02-11T08:45:06.353Z,-0.4
2023-02-11T08:46:06.895Z,-0.4
2023-02-11T08:47:06.004Z,-1
2023-02-11T08:48:06.617Z,-1
2023-02-11T08:49:06.148Z,-0.2
2023-02-11T08:50:05.656Z,-0.2
2023-02-11T08:51:06.435Z,-0.2
2023-02-11T08:52:06.056Z,-0.1
2023-02-11T08:53:06.627Z,-1
2023-02-11T08:54:06.195Z,0
2023-02-11T08:55:05.865Z,0
2023-02-11T08:56:06.486Z,0
2023-02-11T08:57:06.272Z,0
2023-02-11T08:58:05.858Z,0.1
2023-02-11T08:59:06.418Z,0.2
2023-02-11T09:00:06.025Z,0.2
2023-02-11T09:01:06.581Z,0.3
2023-02-11T09:02:06.263Z,0.4
2023-02-11T09:03:05.898Z,0.4
2023-02-11T09:04:05.779Z,0.5
2023-02-11T09:05:06.220Z,0.5
2023-02-11T09:06:05.780Z,0.6
2023-02-11T09:07:06.535Z,0.6
2023-02-11T09:08:06.214Z,0.6
2023-02-11T09:09:05.584Z,0.7
2023-02-11T09:10:06.337Z,0.7
2023-02-11T09:11:06.002Z,0.8
2023-02-11T09:12:06.693Z,0.8
2023-02-11T09:13:06.257Z,0.8
2023-02-11T09:14:05.861Z,0.9
2023-02-11T09:15:06.586Z,0.9
2023-02-11T09:16:06.272Z,0
2023-02-11T09:17:06.164Z,1
2023-02-11T09:18:06.427Z,1.2
2023-02-11T09:19:06.301Z,1.2
2023-02-11T09:20:06.133Z,1.2
2023-02-11T09:21:06.666Z,1.2
2023-02-11T09:22:06.213Z,1
2023-02-11T09:23:05.849Z,1.2
2023-02-11T09:24:06.546Z,1.2
2023-02-11T09:25:06.246Z,1.3
2023-02-11T09:26:08.190Z,1.3
2023-02-11T09:27:06.645Z,1.2
2023-02-11T09:28:06.330Z,1.2
2023-02-11T09:29:05.754Z,1
2023-02-11T09:30:06.503Z,1.2
2023-02-11T09:31:06.653Z,1.2
2023-02-11T09:32:08.609Z,1.2
2023-02-11T09:33:06.356Z,1.3
2023-02-11T09:34:06.034Z,1.3
2023-02-11T09:35:06.628Z,1.2
2023-02-11T09:36:06.329Z,1
2023-02-11T09:37:06.025Z,1.3
2023-02-11T09:38:05.806Z,1.3
2023-02-11T09:39:06.412Z,1.3
2023-02-11T09:40:06.056Z,1
2023-02-11T09:41:06.526Z,1.4
2023-02-11T09:42:06.159Z,1.4
2023-02-11T09:43:08.355Z,1.4
2023-02-11T09:44:06.345Z,1.5
2023-02-11T09:45:05.990Z,1.5
2023-02-11T09:46:06.379Z,1.6
2023-02-11T09:47:05.860Z,1.6
2023-02-11T09:48:10.056Z,1.7
2023-02-11T09:49:06.138Z,1.7
2023-02-11T09:50:05.945Z,1.8
2023-02-11T09:51:06.763Z,1.8
2023-02-11T09:52:06.261Z,1.9
2023-02-11T09:53:05.890Z,2
2023-02-11T09:54:09.596Z,2
2023-02-11T09:55:06.153Z,2
2023-02-11T09:56:06.035Z,2.2
2023-02-11T09:57:06.636Z,2.2
2023-02-11T09:58:06.481Z,2.2
2023-02-11T09:59:06.109Z,2.2
2023-02-11T10:00:05.548Z,2.3
2023-02-11T10:01:06.085Z,2.4
2023-02-11T10:02:06.564Z,2.4
2023-02-11T10:03:06.196Z,2
2023-02-11T10:04:06.027Z,2
2023-02-11T10:05:06.580Z,2.5
2023-02-11T10:06:06.095Z,2.5
2023-02-11T10:07:05.700Z,2.5
2023-02-11T10:08:06.304Z,2.6
2023-02-11T10:09:06.175Z,2.6
2023-02-11T10:10:05.753Z,2.6
2023-02-11T10:11:06.321Z,2.7
2023-02-11T10:12:05.924Z,2.8
2023-02-11T10:13:06.411Z,2
2023-02-11T10:14:05.760Z,2.9
2023-02-11T10:15:06.431Z,3
2023-02-11T10:16:06.375Z,3.1
2023-02-11T10:17:05.692Z,2
2023-02-11T10:18:06.446Z,3.5
2023-02-11T10:19:06.023Z,3.5
2023-02-11T10:20:05.869Z,3.7
2023-02-11T10:21:06.644Z,3.7
2023-02-11T10:22:05.937Z,3.8
2023-02-11T10:23:05.775Z,3.8
2023-02-11T10:24:06.408Z,3.8
2023-02-11T10:25:05.693Z,3.9
2023-02-11T10:26:06.562Z,3.8
2023-02-11T10:27:06.290Z,3.9
2023-02-11T10:28:06.110Z,3.9
2023-02-11T10:29:06.582Z,3.8
2023-02-11T10:30:06.219Z,3.8
2023-02-11T10:31:07.291Z,3.9
2023-02-11T10:32:06.660Z,3.8
2023-02-11T10:33:06.216Z,3.9
2023-02-11T10:34:05.838Z,3.9
2023-02-11T10:35:06.345Z,3.9
2023-02-11T10:36:06.186Z,4
2023-02-11T10:37:05.583Z,4
2023-02-11T10:38:06.443Z,4
2023-02-11T10:39:05.964Z,4
2023-02-11T10:40:06.656Z,4.1
2023-02-11T10:41:06.145Z,4.1
2023-02-11T10:42:05.808Z,4.2
2023-02-11T10:43:06.211Z,4.2
2023-02-11T10:44:06.071Z,3
2023-02-11T10:45:06.670Z,4.3
2023-02-11T10:46:06.117Z,4.2
2023-02-11T10:47:06.439Z,3
2023-02-11T10:48:05.974Z,4.3
2023-02-11T10:49:06.496Z,3
2023-02-11T10:50:06.230Z,4.3
2023-02-11T10:51:05.805Z,4.3
2023-02-11T10:52:06.595Z,4.3
2023-02-11T10:53:06.347Z,4.2
2023-02-11T10:54:05.813Z,3
2023-02-11T10:55:06.537Z,4.2
2023-02-11T10:56:05.873Z,4.1
2023-02-11T10:57:06.519Z,4.2
2023-02-11T10:58:06.442Z,4.1
2023-02-11T10:59:05.929Z,4.1
2023-02-11T11:00:06.580Z,4.1
2023-02-11T11:01:25.659Z,4.1
2023-02-11T11:02:06.108Z,3
2023-02-11T11:03:06.635Z,3
2023-02-11T11:04:06.242Z,4
2023-02-11T11:05:05.988Z,4.1
2023-02-11T11:06:06.310Z,4.1
2023-02-11T11:07:06.157Z,4.1
2023-02-11T11:08:05.814Z,4.1
2023-02-11T11:09:06.278Z,4.1
2023-02-11T11:10:05.945Z,4
2023-02-11T11:11:06.600Z,4.1
2023-02-11T11:12:06.073Z,4.1
2023-02-11T11:13:05.825Z,4.1
2023-02-11T11:14:06.445Z,3
2023-02-11T11:15:06.178Z,4.1
2023-02-11T11:16:06.206Z,4.1
2023-02-11T11:17:06.505Z,4.2
2023-02-11T11:18:25.687Z,4.2
2023-02-11T11:19:05.776Z,4.2
2023-02-11T11:20:06.428Z,4.3
2023-02-11T11:21:05.966Z,4.3
2023-02-11T11:22:06.674Z,4.3
2023-02-11T11:23:06.275Z,4.4
2023-02-11T11:24:05.982Z,4.4
2023-02-11T11:25:06.459Z,4.4
2023-02-11T11:26:06.226Z,4
2023-02-11T11:27:05.884Z,4.4
2023-02-11T11:28:06.285Z,4.4
2023-02-11T11:29:05.904Z,4.4
2023-02-11T11:30:06.550Z,4.4
2023-02-11T11:31:06.507Z,4
2023-02-11T11:32:06.023Z,4.4
2023-02-11T11:33:06.451Z,4.4
2023-02-11T11:34:06.063Z,4.5
2023-02-11T11:35:06.671Z,4.5
2023-02-11T11:36:06.274Z,4.5
2023-02-11T11:37:06.030Z,4.5
2023-02-11T11:38:06.472Z,4
2023-02-11T11:39:06.290Z,4.6
2023-02-11T11:40:05.936Z,4.6
2023-02-11T11:41:06.508Z,4.7
2023-02-11T11:42:06.216Z,4.6
2023-02-11T11:43:05.879Z,4.7
2023-02-11T11:44:06.389Z,4.7
2023-02-11T11:45:06.159Z,4.7
2023-02-11T11:46:06.467Z,4.7
2023-02-11T11:47:06.016Z,4.7
2023-02-11T11:48:05.907Z,4.8
2023-02-11T11:49:06.398Z,4
2023-02-11T11:50:06.170Z,4
2023-02-11T11:51:05.644Z,4.8
2023-02-11T11:52:06.284Z,4.8
2023-02-11T11:53:05.847Z,4.8
2023-02-11T11:54:06.668Z,4.8
2023-02-11T11:55:06.196Z,4.8
2023-02-11T11:56:05.779Z,4.8
2023-02-11T11:57:06.511Z,4.9
2023-02-11T11:58:06.095Z,4.9
2023-02-11T11:59:06.002Z,4.9
2023-02-11T12:00:06.600Z,4.9
2023-02-11T12:01:06.388Z,4.9
2023-02-11T12:02:08.135Z,4.9
2023-02-11T12:03:06.585Z,5
2023-02-11T12:04:06.139Z,4.9
2023-02-11T12:05:05.672Z,5
2023-02-11T12:06:06.413Z,5
2023-02-11T12:07:06.092Z,5
2023-02-11T12:08:06.508Z,5
2023-02-11T12:09:06.174Z,5
2023-02-11T12:10:05.978Z,5.1
2023-02-11T12:11:06.557Z,5
2023-02-11T12:12:06.121Z,5.1
2023-02-11T12:13:05.610Z,5.1
2023-02-11T12:14:06.208Z,5.1
2023-02-11T12:15:05.887Z,5.2
2023-02-11T12:16:06.304Z,5.1
2023-02-11T12:17:06.704Z,5
2023-02-11T12:18:06.203Z,5.2
2023-02-11T12:19:05.710Z,5
2023-02-11T12:20:06.607Z,5
2023-02-11T12:21:06.315Z,5.3
2023-02-11T12:22:05.852Z,5.3
2023-02-11T12:23:06.554Z,5
2023-02-11T12:24:06.247Z,5.4
2023-02-11T12:25:05.612Z,5.4
2023-02-11T12:26:06.154Z,5.4
2023-02-11T12:27:05.807Z,5.4
2023-02-11T12:28:06.570Z,5.5
2023-02-11T12:29:06.039Z,5.4
2023-02-11T12:30:06.662Z,5
2023-02-11T12:31:06.036Z,5
2023-02-11T12:32:06.718Z,5
2023-02-11T12:33:06.322Z,5.5
2023-02-11T12:34:05.963Z,5.5
2023-02-11T12:35:05.718Z,5.5
2023-02-11T12:36:06.303Z,5.6
2023-02-11T12:37:09.957Z,5.6
2023-02-11T12:38:06.509Z,5.6
2023-02-11T12:39:06.110Z,5.6
2023-02-11T12:40:05.797Z,5.6
2023-02-11T12:41:06.330Z,5.6
2023-02-11T12:42:06.076Z,5.7
2023-02-11T12:43:06.959Z,5.7
2023-02-11T12:44:06.331Z,5.7
2023-02-11T12:45:06.062Z,5.7
2023-02-11T12:46:06.066Z,5.7
2023-02-11T12:47:06.660Z,5.8
2023-02-11T12:48:06.276Z,5.8
2023-02-11T12:49:05.890Z,5.8
2023-02-11T12:50:06.621Z,5.8
2023-02-11T12:51:06.082Z,5
2023-02-11T12:52:05.948Z,5.8
2023-02-11T12:53:06.462Z,5.8
2023-02-11T12:54:08.857Z,5.8
2023-02-11T12:55:05.834Z,5.9
2023-02-11T12:56:06.581Z,6
2023-02-11T12:57:06.037Z,6
2023-02-11T12:58:06.462Z,6
2023-02-11T12:59:06.320Z,6.1
2023-02-11T13:00:05.890Z,6.1
2023-02-11T13:01:06.127Z,6.2
2023-02-11T13:02:06.743Z,6.2
2023-02-11T13:03:06.194Z,6.3
2023-02-11T13:04:05.656Z,6.3
2023-02-11T13:05:06.501Z,6.4
2023-02-11T13:06:06.155Z,6.4
2023-02-11T13:07:05.581Z,6.4
2023-02-11T13:08:06.336Z,6.4
2023-02-11T13:09:06.305Z,6.5
2023-02-11T13:10:05.675Z,6.6
2023-02-11T13:11:06.194Z,6.5
2023-02-11T13:12:05.896Z,6.6
2023-02-11T13:13:06.545Z,6.6
2023-02-11T13:14:06.326Z,6.6
2023-02-11T13:15:05.984Z,6.6
2023-02-11T13:16:05.881Z,6.6
2023-02-11T13:17:06.490Z,6
2023-02-11T13:18:06.212Z,6.8
2023-02-11T13:19:06.090Z,6.8
2023-02-11T13:20:06.583Z,6.8
2023-02-11T13:21:06.058Z,7
2023-02-11T13:22:05.856Z,7
2023-02-11T13:23:06.450Z,6
2023-02-11T13:24:05.763Z,7.1
2023-02-11T13:25:06.644Z,7
2023-02-11T13:26:06.156Z,7
2023-02-11T13:27:05.894Z,7.1
2023-02-11T13:28:06.445Z,7.1
2023-02-11T13:29:06.343Z,7.2
2023-02-11T13:30:08.449Z,7.1
2023-02-11T13:31:06.047Z,7.2
2023-02-11T13:32:06.300Z,7.2
2023-02-11T13:33:05.892Z,7.2
2023-02-11T13:34:06.545Z,7.2
2023-02-11T13:35:06.310Z,7.2
2023-02-11T13:36:08.850Z,7.2
2023-02-11T13:37:06.393Z,7.2
2023-02-11T13:38:06.068Z,7
2023-02-11T13:39:05.818Z,7.2